createdAt,value
2017-07-27T05:34:05.070Z,40.20
2017-07-27T05:36:33.082Z,40.90
2017-07-27T05:39:00.650Z,41.10
2017-07-27T05:41:29.201Z,41.00
2017-07-27T05:43:57.550Z,41.20
2017-07-27T05:46:25.138Z,41.50
2017-07-27T05:48:52.742Z,41.50
2017-07-27T05:51:20.317Z,41.70
2017-07-27T05:53:48.774Z,41.90
2017-07-27T05:56:16.410Z,41.80
2017-07-27T05:58:43.986Z,42.00
2017-07-27T06:01:11.579Z,41.70
2017-07-27T06:03:39.182Z,41.10
2017-07-27T06:06:06.767Z,41.20
2017-07-27T06:08:34.346Z,41.00
2017-07-27T06:11:01.994Z,40.90
2017-07-27T06:13:29.562Z,41.00
2017-07-27T06:15:58.926Z,41.10
2017-07-27T06:18:27.518Z,41.20
2017-07-27T06:20:55.325Z,41.30
2017-07-27T06:23:22.898Z,42.30
2017-07-27T06:25:50.535Z,41.80
2017-07-27T06:28:18.135Z,42.30
2017-07-27T06:30:45.714Z,42.70
2017-07-27T06:33:13.343Z,42.80
2017-07-27T06:35:41.264Z,42.80
2017-07-27T06:38:08.862Z,43.20
2017-07-27T06:40:36.495Z,43.40
2017-07-27T06:43:04.095Z,43.70
2017-07-27T06:45:31.666Z,43.40
2017-07-27T06:47:59.296Z,43.10
2017-07-27T06:50:26.871Z,42.60
2017-07-27T06:52:54.466Z,42.30
2017-07-27T06:55:22.068Z,42.50
2017-07-27T06:57:51.421Z,42.10
2017-07-27T07:00:18.990Z,42.10
2017-07-27T07:02:46.575Z,41.80
2017-07-27T07:05:14.134Z,41.50
2017-07-27T07:07:41.723Z,41.30
2017-07-27T07:10:09.347Z,41.10
2017-07-27T07:12:36.917Z,40.90
2017-07-27T07:15:04.518Z,40.80
2017-07-27T07:17:32.142Z,40.60
2017-07-27T07:20:00.471Z,40.40
2017-07-27T07:22:28.034Z,40.30
2017-07-27T07:24:56.382Z,40.30
2017-07-27T07:27:23.976Z,40.20
2017-07-27T07:29:51.537Z,40.10
2017-07-27T07:32:19.799Z,40.00
2017-07-27T07:34:47.364Z,39.90
2017-07-27T07:37:14.950Z,39.90
2017-07-27T07:39:42.542Z,39.80
2017-07-27T07:42:10.134Z,39.70
2017-07-27T07:44:37.726Z,39.70
2017-07-27T07:47:05.322Z,39.60
2017-07-27T07:49:32.982Z,39.50
2017-07-27T07:52:00.574Z,39.50
2017-07-27T07:54:28.166Z,40.00
2017-07-27T07:56:55.754Z,39.30
2017-07-27T07:59:23.351Z,39.30
2017-07-27T08:01:50.950Z,39.30
2017-07-27T08:04:18.527Z,39.30
2017-07-27T08:06:46.102Z,39.10
2017-07-27T08:09:25.506Z,39.20
2017-07-27T08:11:53.100Z,39.10
2017-07-27T08:14:20.695Z,39.10
2017-07-27T08:16:48.314Z,39.00
2017-07-27T08:19:15.916Z,39.00
2017-07-27T08:21:44.059Z,38.90
2017-07-27T08:24:12.631Z,38.90
2017-07-27T08:26:40.206Z,38.90
2017-07-27T08:29:07.763Z,38.80
2017-07-27T08:31:35.494Z,38.80
2017-07-27T08:34:03.064Z,38.80
2017-07-27T08:36:31.201Z,38.80
2017-07-27T08:38:59.158Z,38.70
2017-07-27T08:41:26.752Z,38.70
2017-07-27T08:43:54.322Z,38.70
2017-07-27T08:46:21.914Z,38.60
2017-07-27T08:48:49.503Z,38.60
2017-07-27T08:51:17.107Z,38.60
2017-07-27T08:53:44.702Z,38.50
2017-07-27T08:56:12.286Z,38.50
2017-07-27T08:58:39.850Z,38.50
2017-07-27T09:01:07.674Z,38.50
2017-07-27T09:03:35.246Z,38.50
2017-07-27T09:06:02.806Z,38.40
2017-07-27T09:08:30.966Z,38.40
2017-07-27T09:10:58.530Z,38.40
2017-07-27T09:13:26.095Z,38.40
2017-07-27T09:15:53.678Z,38.40
2017-07-27T09:18:21.242Z,38.40
2017-07-27T09:20:48.802Z,38.30
2017-07-27T09:23:16.393Z,38.30
2017-07-27T09:25:43.983Z,38.30
2017-07-27T09:28:11.551Z,38.20
2017-07-27T09:30:39.162Z,38.20
2017-07-27T09:33:06.740Z,38.20
2017-07-27T09:35:34.338Z,38.20
2017-07-27T09:38:01.935Z,38.20
2017-07-27T09:40:29.498Z,38.20
2017-07-27T09:42:57.086Z,38.20
2017-07-27T09:45:24.690Z,38.10
2017-07-27T09:47:52.250Z,38.10
2017-07-27T09:50:19.818Z,38.20
2017-07-27T09:52:47.411Z,38.20
2017-07-27T09:55:14.995Z,38.10
2017-07-27T09:57:48.147Z,38.80
2017-07-27T10:00:15.745Z,38.10
2017-07-27T10:02:43.307Z,38.10
2017-07-27T10:05:10.866Z,38.10
2017-07-27T10:07:38.482Z,38.10
2017-07-27T10:10:06.070Z,38.10
2017-07-27T10:12:33.634Z,38.10
2017-07-27T10:15:01.262Z,38.10
2017-07-27T10:17:28.818Z,38.10
2017-07-27T10:19:56.374Z,38.10
2017-07-27T10:22:23.974Z,38.10
2017-07-27T10:24:51.542Z,38.10
2017-07-27T10:27:19.102Z,38.10
2017-07-27T10:29:47.511Z,38.20
2017-07-27T10:32:15.102Z,38.10
2017-07-27T10:34:42.694Z,38.10
2017-07-27T10:37:10.290Z,38.10
2017-07-27T10:39:37.856Z,38.10
2017-07-27T10:42:05.458Z,38.10
2017-07-27T10:44:33.058Z,38.00
2017-07-27T10:47:00.650Z,38.10
2017-07-27T10:49:28.238Z,38.10
2017-07-27T10:51:55.831Z,38.10
2017-07-27T10:54:23.423Z,38.10
2017-07-27T10:56:51.006Z,38.10
2017-07-27T10:59:18.601Z,38.00
2017-07-27T11:01:46.186Z,38.00
2017-07-27T11:04:13.776Z,38.00
2017-07-27T11:06:41.403Z,38.00
2017-07-27T11:09:09.004Z,38.00
2017-07-27T11:11:36.602Z,38.00
2017-07-27T11:14:04.231Z,38.70
2017-07-27T11:16:31.793Z,38.00
2017-07-27T11:18:59.596Z,38.00
2017-07-27T11:21:27.209Z,38.00
2017-07-27T11:23:54.811Z,38.00
2017-07-27T11:26:22.382Z,38.00
2017-07-27T11:28:49.970Z,38.00
2017-07-27T11:31:22.307Z,38.00
2017-07-27T11:33:49.985Z,37.90
2017-07-27T11:36:17.620Z,38.00
2017-07-27T11:38:45.228Z,37.90
2017-07-27T11:41:12.799Z,38.00
2017-07-27T11:43:40.391Z,38.00
2017-07-27T11:46:07.958Z,37.90
2017-07-27T11:48:36.311Z,37.90
2017-07-27T11:51:03.926Z,37.90
2017-07-27T11:53:32.318Z,37.80
2017-07-27T11:55:59.883Z,37.90
2017-07-27T11:58:27.918Z,37.90
2017-07-27T12:00:55.518Z,37.90
2017-07-27T12:03:23.098Z,37.90
2017-07-27T12:05:50.690Z,37.90
2017-07-27T12:08:18.310Z,37.80
2017-07-27T12:10:45.935Z,37.90
2017-07-27T12:13:13.851Z,37.90
2017-07-27T12:15:41.419Z,37.80
2017-07-27T12:18:08.990Z,37.80
2017-07-27T12:20:37.400Z,37.90
2017-07-27T12:23:05.011Z,37.90
2017-07-27T12:25:32.594Z,37.90
2017-07-27T12:28:00.226Z,37.90
2017-07-27T12:30:27.802Z,37.90
2017-07-27T12:32:55.391Z,37.80
2017-07-27T12:35:23.014Z,37.90
2017-07-27T12:37:50.595Z,37.80
2017-07-27T12:40:18.163Z,37.80
2017-07-27T12:42:46.219Z,37.80
2017-07-27T12:45:13.795Z,37.80
2017-07-27T12:47:41.386Z,37.90
2017-07-27T12:50:09.771Z,37.80
2017-07-27T12:52:37.342Z,37.80
2017-07-27T12:55:04.907Z,37.80
2017-07-27T12:57:32.498Z,37.80
2017-07-27T13:00:00.086Z,37.90
2017-07-27T13:02:28.013Z,37.70
2017-07-27T13:04:55.645Z,37.80
2017-07-27T13:07:23.209Z,37.90
2017-07-27T13:09:50.774Z,37.80
2017-07-27T13:12:18.679Z,37.80
2017-07-27T13:14:46.294Z,37.80
2017-07-27T13:17:13.858Z,37.90
2017-07-27T13:19:41.446Z,37.90
2017-07-27T13:22:09.013Z,37.80
2017-07-27T13:24:37.383Z,37.90
2017-07-27T13:27:04.999Z,37.80
2017-07-27T13:29:32.562Z,37.80
2017-07-27T13:32:00.138Z,37.80
2017-07-27T13:34:28.736Z,37.80
2017-07-27T13:36:56.383Z,37.80
2017-07-27T13:39:23.978Z,37.90
2017-07-27T13:41:52.208Z,37.80
2017-07-27T13:44:19.798Z,37.80
2017-07-27T13:46:47.383Z,37.80
2017-07-27T13:49:15.822Z,37.80
2017-07-27T13:51:43.435Z,37.80
2017-07-27T13:54:11.059Z,37.90
2017-07-27T13:56:39.502Z,37.90
2017-07-27T13:59:07.091Z,37.80
2017-07-27T14:01:34.935Z,37.80
2017-07-27T14:04:02.579Z,37.90
2017-07-27T14:06:30.158Z,37.80
2017-07-27T14:08:57.750Z,37.80
2017-07-27T14:11:26.279Z,37.80
2017-07-27T14:13:54.443Z,37.80
2017-07-27T14:16:22.021Z,37.80
2017-07-27T14:18:49.674Z,37.80
2017-07-27T14:21:17.308Z,37.80
2017-07-27T14:23:45.122Z,37.80
2017-07-27T14:26:12.759Z,37.80
2017-07-27T14:28:40.386Z,37.80
2017-07-27T14:31:08.290Z,37.80
2017-07-27T14:33:35.955Z,37.80
2017-07-27T14:36:03.580Z,37.80
2017-07-27T14:38:31.158Z,37.80
2017-07-27T14:40:59.580Z,37.80
2017-07-27T14:43:27.166Z,37.80
2017-07-27T14:45:54.742Z,37.80
2017-07-27T14:48:22.397Z,37.80
2017-07-27T14:50:50.019Z,37.80
2017-07-27T14:53:17.594Z,37.80
2017-07-27T14:55:45.220Z,37.80
2017-07-27T14:58:12.795Z,37.80
2017-07-27T15:00:40.392Z,37.80
2017-07-27T15:03:08.000Z,37.70
2017-07-27T15:05:35.630Z,37.80
2017-07-27T15:08:03.509Z,37.80
2017-07-27T15:10:31.113Z,37.80
2017-07-27T15:12:58.758Z,37.80
2017-07-27T15:15:27.323Z,37.80
2017-07-27T15:17:55.007Z,37.80
2017-07-27T15:20:23.066Z,37.80
2017-07-27T15:22:51.354Z,37.80
2017-07-27T15:25:20.051Z,37.70
2017-07-27T15:27:47.659Z,37.80
2017-07-27T15:30:15.262Z,37.80
2017-07-27T15:32:43.329Z,37.80
2017-07-27T15:35:12.021Z,37.80
2017-07-27T15:37:39.635Z,37.70
2017-07-27T15:40:07.731Z,37.80
2017-07-27T15:42:35.346Z,37.80
2017-07-27T15:45:02.953Z,37.80
2017-07-27T15:47:30.582Z,37.80
2017-07-27T15:49:59.651Z,37.80
2017-07-27T15:52:27.291Z,37.70
2017-07-27T15:54:55.288Z,37.80
2017-07-27T15:57:23.489Z,37.70
2017-07-27T15:59:51.095Z,37.80
2017-07-27T16:02:19.670Z,37.70
2017-07-27T16:04:47.271Z,37.80
2017-07-27T16:07:15.101Z,37.60
2017-07-27T16:09:43.170Z,37.70
2017-07-27T16:12:10.763Z,37.70
2017-07-27T16:14:39.389Z,37.70
2017-07-27T16:17:07.022Z,37.70
2017-07-27T16:19:35.287Z,37.70
2017-07-27T16:22:03.955Z,37.70
2017-07-27T16:24:31.588Z,37.70
2017-07-27T16:26:59.280Z,37.70
2017-07-27T16:29:26.887Z,37.70
2017-07-27T16:31:54.510Z,37.70
2017-07-27T16:34:22.093Z,37.70
2017-07-27T16:36:50.312Z,37.70
2017-07-27T16:39:19.027Z,37.60
2017-07-27T16:41:47.696Z,37.70
2017-07-27T16:44:15.301Z,37.70
2017-07-27T16:46:42.923Z,37.70
2017-07-27T16:49:10.520Z,37.60
2017-07-27T16:51:38.115Z,37.70
2017-07-27T16:54:06.594Z,37.70
2017-07-27T16:56:34.198Z,37.70
2017-07-27T16:59:01.800Z,37.70
2017-07-27T17:01:29.430Z,37.70
2017-07-27T17:03:57.640Z,37.70
2017-07-27T17:06:25.255Z,37.80
2017-07-27T17:08:52.862Z,37.80
2017-07-27T17:11:20.448Z,37.70
2017-07-27T17:13:48.022Z,37.80
2017-07-27T17:16:15.659Z,37.80
2017-07-27T17:18:43.280Z,37.70
2017-07-27T17:21:10.937Z,37.80
2017-07-27T17:23:39.652Z,37.80
2017-07-27T17:26:07.250Z,37.80
2017-07-27T17:28:34.823Z,37.80
2017-07-27T17:31:02.430Z,37.80
2017-07-27T17:33:30.006Z,37.80
2017-07-27T17:35:58.457Z,37.90
2017-07-27T17:38:26.103Z,37.80
2017-07-27T17:40:54.430Z,37.80
2017-07-27T17:43:23.060Z,37.80
2017-07-27T17:45:50.670Z,37.80
2017-07-27T17:48:18.252Z,37.80
2017-07-27T17:50:45.838Z,37.80
2017-07-27T17:53:16.489Z,37.80
2017-07-27T17:55:46.175Z,37.80
2017-07-27T17:58:13.746Z,37.90
2017-07-27T18:00:41.570Z,37.80
2017-07-27T18:03:13.153Z,37.80
2017-07-27T18:05:40.849Z,37.80
2017-07-27T18:08:09.133Z,37.80
2017-07-27T18:10:36.731Z,37.90
2017-07-27T18:13:05.067Z,37.90
2017-07-27T18:15:33.482Z,37.90
2017-07-27T18:18:01.046Z,37.90
2017-07-27T18:20:28.651Z,37.90
2017-07-27T18:22:57.349Z,37.90
2017-07-27T18:25:24.977Z,38.10
2017-07-27T18:27:53.039Z,37.90
2017-07-27T18:30:20.851Z,38.10
2017-07-27T18:32:48.426Z,38.30
2017-07-27T18:35:16.840Z,38.20
2017-07-27T18:37:44.477Z,38.30
2017-07-27T18:40:12.097Z,38.80
2017-07-27T18:42:39.798Z,45.00
2017-07-27T18:45:07.574Z,45.00
2017-07-27T18:47:35.203Z,46.30
2017-07-27T18:50:02.795Z,47.30
2017-07-27T18:52:30.932Z,48.00
2017-07-27T18:54:58.539Z,48.10
2017-07-27T18:57:26.167Z,47.70
2017-07-27T18:59:53.790Z,47.70
2017-07-27T19:02:21.362Z,47.70
2017-07-27T19:04:49.465Z,47.70
2017-07-27T19:07:17.135Z,47.80
2017-07-27T19:09:44.753Z,47.50
2017-07-27T19:12:13.087Z,47.20
2017-07-27T19:14:41.827Z,47.60
2017-07-27T19:17:09.447Z,48.00
2017-07-27T19:19:37.848Z,48.20
2017-07-27T19:22:05.475Z,48.00
2017-07-27T19:24:33.383Z,48.20
2017-07-27T19:27:01.182Z,48.10
2017-07-27T19:29:28.834Z,48.20
2017-07-27T19:31:56.467Z,47.90
2017-07-27T19:34:24.927Z,48.00
2017-07-27T19:36:52.877Z,47.90
2017-07-27T19:39:20.504Z,47.80
2017-07-27T19:41:48.094Z,47.90
2017-07-27T19:44:15.718Z,47.60
2017-07-27T19:46:43.346Z,47.80
2017-07-27T19:49:10.942Z,47.90
2017-07-27T19:51:39.429Z,48.00
2017-07-27T19:54:08.096Z,48.30
2017-07-27T19:56:36.607Z,48.70
2017-07-27T19:59:04.230Z,49.00
2017-07-27T20:01:31.821Z,49.20
2017-07-27T20:04:01.116Z,51.30
2017-07-27T20:06:28.863Z,50.00
2017-07-27T20:08:57.163Z,49.80
2017-07-27T20:11:24.751Z,50.00
2017-07-27T20:13:54.706Z,49.80
2017-07-27T20:16:22.290Z,50.00
2017-07-27T20:18:50.566Z,49.90
2017-07-27T20:21:18.206Z,50.50
2017-07-27T20:23:45.986Z,49.90
2017-07-27T20:26:13.794Z,49.80
2017-07-27T20:28:42.001Z,50.20
2017-07-27T20:31:09.971Z,50.60
2017-07-27T20:33:37.874Z,50.80
2017-07-27T20:36:06.206Z,49.80
2017-07-27T20:38:33.799Z,50.10
2017-07-27T20:41:01.405Z,50.70
2017-07-27T20:43:29.800Z,50.20
2017-07-27T20:45:57.852Z,51.30
2017-07-27T20:48:25.517Z,50.30
2017-07-27T20:50:53.155Z,50.30
2017-07-27T20:53:20.771Z,50.40
2017-07-27T20:55:48.341Z,51.20
2017-07-27T20:58:16.312Z,51.10
2017-07-27T21:00:43.892Z,50.70
2017-07-27T21:03:11.508Z,50.50
2017-07-27T21:05:39.600Z,51.00
2017-07-27T21:08:09.418Z,51.70
2017-07-27T21:10:37.033Z,51.70
2017-07-27T21:13:04.711Z,52.10
2017-07-27T21:15:33.346Z,51.90
2017-07-27T21:18:01.024Z,51.80
2017-07-27T21:20:29.706Z,52.10
2017-07-27T21:22:57.352Z,51.80
2017-07-27T21:25:25.220Z,51.20
2017-07-27T21:27:53.039Z,51.40
2017-07-27T21:30:20.651Z,50.10
2017-07-27T21:32:48.243Z,49.10
2017-07-27T21:35:16.387Z,47.60
2017-07-27T21:37:43.998Z,47.20
2017-07-27T21:40:12.216Z,48.50
2017-07-27T21:42:40.975Z,48.10
2017-07-27T21:45:09.281Z,46.80
2017-07-27T21:47:36.970Z,45.90
2017-07-27T21:50:05.362Z,46.90
2017-07-27T21:52:32.961Z,46.80
2017-07-27T21:55:01.439Z,46.40
2017-07-27T21:57:29.676Z,46.40
2017-07-27T21:59:57.719Z,46.10
2017-07-27T22:02:25.291Z,46.50
2017-07-27T22:04:52.936Z,46.20
2017-07-27T22:07:20.519Z,46.10
2017-07-27T22:09:48.095Z,45.60
2017-07-27T22:12:16.650Z,45.80
2017-07-27T22:14:45.973Z,44.50
2017-07-27T22:17:13.560Z,44.30
2017-07-27T22:19:41.182Z,45.20
2017-07-27T22:22:15.884Z,45.40
2017-07-27T22:24:56.235Z,45.60
2017-07-27T22:27:31.184Z,45.00
2017-07-27T22:29:58.770Z,45.80
2017-07-27T22:32:26.832Z,45.70
2017-07-27T22:34:54.936Z,45.60
2017-07-27T22:37:22.515Z,45.20
2017-07-27T22:39:50.542Z,44.60
2017-07-27T22:42:18.135Z,45.20
2017-07-27T22:44:45.746Z,45.40
2017-07-27T22:47:13.424Z,44.70
2017-07-27T22:49:41.872Z,45.10
2017-07-27T22:52:10.300Z,44.90
2017-07-27T22:54:37.906Z,43.90
2017-07-27T22:57:05.486Z,42.80
2017-07-27T22:59:33.062Z,42.20
2017-07-27T23:02:00.786Z,42.20
2017-07-27T23:04:28.359Z,41.90
2017-07-27T23:06:55.942Z,43.30
2017-07-27T23:09:23.554Z,42.70
2017-07-27T23:11:51.799Z,42.20
2017-07-27T23:14:19.378Z,45.00
2017-07-27T23:16:47.305Z,43.80
2017-07-27T23:19:15.323Z,43.80
2017-07-27T23:21:42.926Z,44.50
2017-07-27T23:24:11.392Z,44.00
2017-07-27T23:26:38.983Z,43.40
2017-07-27T23:29:06.591Z,44.30
2017-07-27T23:31:34.202Z,42.80
2017-07-27T23:34:02.539Z,43.10
2017-07-27T23:36:30.106Z,44.30
2017-07-27T23:38:57.731Z,42.20
2017-07-27T23:41:25.310Z,41.40
2017-07-27T23:43:52.866Z,41.20
2017-07-27T23:46:21.253Z,42.90
2017-07-27T23:48:48.851Z,43.90
2017-07-27T23:51:16.446Z,44.30
2017-07-27T23:53:44.064Z,44.90
2017-07-27T23:56:11.671Z,45.20
2017-07-27T23:58:39.280Z,45.50
